• Join FlightAware (Why Join?)
  • Login
  • US Flag 
12:56AM EDT


 

Airport Tracker/Info


-or-


 

Live Flight TrackerFlight Track Log ✈ GGN7280 ✈ 02-Jul-2013 ✈ CYYZ - KALB

Flight Track Log - Related Links

Times and Time Zones

All times are in EDT time to prevent confusion due to time zone crossing. See the GGN7280 flight status page for this flight to view local times or setup timezone preferences in your user account.

Time Position Orientation Groundspeed Altitude Reporting Facility
EDT Latitude Longitude Course Direction KTS MPH feet Rate Location/Type
09:30AM 43.6500 -79.6167 360° North 10 12 600  Level Toronto Center
09:33AM 43.6500 -79.6167 90° East 10 12 600 360 Level Toronto Center
09:34AM 43.6667 -79.5333 75° East 140 161 2,100 1,680 Climbing Toronto Center
09:35AM 43.6667 -79.5000 90° East 170 196 4,000 1,500 Climbing Toronto Center
09:36AM 43.6333 -79.4333 125° Southeast 190 219 5,100 540 Climbing Toronto Center
09:37AM 43.6000 -79.3500 119° Southeast 230 265 5,100 60 Level Toronto Center
09:38AM 43.5667 -79.2667 119° Southeast 250 288 5,300 1,020 Climbing Toronto Center
09:39AM 43.5333 -79.2000 125° Southeast 230 265 7,200 1,620 Climbing Toronto Center
09:40AM 43.5167 -79.1333 109° East 210 242 8,600 1,380 Climbing Toronto Center
09:41AM 43.5000 -79.0333 103° East 220 253 10,000 1,320 Climbing Toronto Center
09:42AM 43.4833 -78.9667 109° East 220 253 11,300 1,320 Climbing Toronto Center
09:43AM 43.4833 -78.8667 90° East 230 265 12,700 1,320 Climbing Toronto Center
09:44AM 43.4833 -78.7833 90° East 230 265 14,000 1,560 Climbing Toronto Center
09:45AM 43.4667 -78.6833 103° East 230 265 15,900 1,620 Climbing Toronto Center
09:46AM 43.4500 -78.6000 105° East 230 265 17,300 1,260 Climbing Toronto Center
09:47AM 43.4500 -78.5000 90° East 240 276 18,500 1,200 Climbing Toronto Center
09:48AM 43.4167 -78.4167 119° Southeast 240 276 19,800 1,080 Climbing Toronto Center
09:49AM 43.4303 -78.3306 78° East 239 275 21,000 900 Climbing Cleveland Center
09:50AM 43.4183 -78.2453 101° East 239 275 21,900 900 Climbing Cleveland Center
09:51AM 43.4036 -78.1458 101° East 237 273 22,800 480 Climbing Cleveland Center
09:52AM 43.3911 -78.0436 100° East 244 281 22,900  Climbing Cleveland Center
09:53AM 43.3678 -77.9389 107° East 267 307 22,900  Level Cleveland Center
09:54AM 43.3569 -77.8281 98° East 280 322 22,900  Level Cleveland Center
09:55AM 43.3419 -77.7200 101° East 280 322 22,900  Level Cleveland Center
09:56AM 43.3286 -77.6122 100° East 285 328 22,900  Level Cleveland Center
09:57AM 43.3156 -77.5072 100° East 285 328 22,900  Level Cleveland Center
09:58AM 43.3022 -77.3994 100° East 285 328 22,900  Level Cleveland Center
10:00AM 43.2783 -77.2094 100° East 279 321 22,900  Level Boston Center
10:01AM 43.2636 -77.1056 101° East 279 321 22,900  Level Boston Center
10:02AM 43.2333 -76.9833 109° East 280 322 22,900 540 Level Toronto Center
10:03AM 43.2167 -76.8833 103° East 270 311 24,000 900 Climbing Toronto Center
10:04AM 43.2167 -76.7667 90° East 260 299 24,700 420 Climbing Toronto Center
10:05AM 43.2000 -76.6833 105° East 260 299 24,900 60 Climbing Toronto Center
10:06AM 43.1667 -76.6000 119° Southeast 270 311 24,900  Level Toronto Center
10:07AM 43.1667 -76.4833 90° East 270 311 24,900  Level Toronto Center
10:08AM 43.1500 -76.3833 103° East 270 311 24,900  Level Toronto Center
10:09AM 43.1436 -76.3047 96° East 262 302 24,900 -360 Level Boston Center
10:10AM 43.1283 -76.1986 101° East 267 307 24,200 -900 Descending Boston Center
10:11AM 43.1108 -76.0950 103° East 273 314 23,200 -1,080 Descending Boston Center
10:12AM 43.0997 -75.9836 98° East 280 322 22,100 -1,140 Descending Boston Center
10:13AM 43.0947 -75.8753 94° East 280 322 21,000 -1,140 Descending Boston Center
10:14AM 43.0894 -75.7697 94° East 280 322 19,900 -1,140 Descending Boston Center
10:15AM 43.0864 -75.6614 92° East 280 322 18,800 -1,140 Descending Boston Center
10:16AM 43.0792 -75.5500 95° East 285 328 17,700 -1,140 Descending Boston Center
10:17AM 43.0758 -75.4361 92° East 291 335 16,600 -1,140 Descending Boston Center
10:18AM 43.0703 -75.3250 94° East 291 335 15,500 -1,200 Descending Boston Center
10:19AM 43.0669 -75.2142 92° East 291 335 14,300 -1,260 Descending Boston Center
10:20AM 43.0633 -75.1031 93° East 291 335 13,000 -1,260 Descending Boston Center
10:21AM 43.0553 -74.9947 96° East 291 335 11,800 -1,080 Descending Boston Center
10:22AM 43.0472 -74.8892 96° East 286 329 10,900 -480 Descending Boston Center
10:23AM 43.0428 -74.8067 94° East 269 310 11,000 60 Climbing Boston Center
10:24AM 43.0417 -74.7525 92° East 265 305 11,000 -120 Level Boston Center
10:24AM 43.0347 -74.6869 98° East 270 311 10,900 -60 Descending Boston Center
10:25AM 43.0303 -74.5875 93° East 265 305 10,900  Level Boston Center
10:26AM 43.0239 -74.4878 95° East 260 299 10,900 -60 Level Boston Center
10:27AM 43.0153 -74.3881 97° East 260 299 10,800 -780 Descending Boston Center
10:28AM 42.9811 -74.3075 120° Southeast 248 285 9,400 -1,500 Descending Boston Center
10:29AM 42.9367 -74.2239 126° Southeast 261 300 7,800 -1,500 Descending Boston Center
10:30AM 42.9003 -74.1436 122° Southeast 266 306 6,400 -1,560 Descending Boston Center
10:31AM 42.8803 -74.0975 121° Southeast 246 283 5,400 -900 Descending Boston Center
10:32AM 42.8267 -74.0567 151° Southeast 226 260 5,000 -240 Descending Boston Center
10:33AM 42.7667 -74.0153 153° Southeast 223 257 5,000 -540 Level Boston Center
10:34AM 42.7150 -73.9831 155° Southeast 230 265 4,000 -720 Descending Boston Center
10:34AM 42.6922 -73.9683 155° Southeast 229 264 4,000  Level Boston Center
10:35AM 42.6572 -73.9478 157° South 225 259 4,000 -540 Level Boston Center
10:36AM 42.6056 -73.9153 155° Southeast 220 253 3,300 -720 Descending Boston Center
10:36AM 42.5828 -73.8950 147° Southeast 229 264 3,000 -300 Descending Boston Center
10:37AM 42.5672 -73.8186 105° East 190 219 2,900 -480 Descending Boston Center
10:38AM 42.5883 -73.7936 41° Northeast 194 223 2,300 -600 Descending Boston Center
10:39AM 42.6361 -73.8033 351° North 175 201 2,000 -480 Descending Boston Center
10:40AM 42.6881 -73.8044 359° North 178 205 1,400 -720 Descending Boston Center
10:41AM 42.7297 -73.8081 356° North 140 161 600 -840 Descending Boston Center